Time;durP1;ratioP1;P1;durP2;ratioP2;P2;SDS_P1;SDS_P2;PMS_P1;PMS_P2;Temp;Humidity;BMP_temperature;BMP_pressure;BME280_temperature;BME280_humidity;BME280_pressure;Samples;Min_cycle;Max_cycle;Signal;HPM_P1;HPM_P2
2022/06/05 00:01:01;;;;;;;6.70;6.30;;;;;;;23.78;100.00;99471.63;5089602;28;20192;-67
2022/06/05 00:03:37;;;;;;;6.10;5.60;;;;;;;23.78;100.00;99472.41;5084713;28;20210;-68
2022/06/05 00:06:13;;;;;;;6.83;6.17;;;;;;;23.72;99.97;99472.94;5089742;28;20203;-67
2022/06/05 00:08:50;;;;;;;6.00;5.70;;;;;;;23.78;100.00;99477.66;5090087;28;20291;-68
2022/06/05 00:11:17;;;;;;;6.30;6.00;;;;;;;23.83;100.00;99479.91;5088727;28;20649;-68
2022/06/05 00:13:47;;;;;;;8.17;7.23;;;;;;;23.78;100.00;99469.81;5088558;28;20203;-67
2022/06/05 00:16:14;;;;;;;6.20;5.90;;;;;;;23.86;100.00;99480.47;5090392;28;20214;-68
2022/06/05 00:18:45;;;;;;;6.47;6.07;;;;;;;23.80;100.00;99465.28;5088472;28;20226;-67
2022/06/05 00:21:12;;;;;;;6.40;5.83;;;;;;;23.88;100.00;99478.56;5089691;28;20231;-67
2022/06/05 00:23:40;;;;;;;6.80;6.40;;;;;;;23.88;100.00;99478.56;5087179;28;20211;-67
2022/06/05 00:26:18;;;;;;;5.93;5.57;;;;;;;23.92;100.00;99485.19;5089960;28;20196;-67
2022/06/05 00:28:57;;;;;;;6.17;5.53;;;;;;;23.89;99.88;99489.84;5089376;28;20202;-67
2022/06/05 00:31:31;;;;;;;5.43;5.13;;;;;;;23.79;97.34;99474.09;5087628;28;20220;-67
2022/06/05 00:33:59;;;;;;;6.07;5.77;;;;;;;23.81;97.39;99477.41;5088265;28;20217;-67
2022/06/05 00:36:42;;;;;;;6.33;5.77;;;;;;;23.84;96.77;99482.41;5088834;28;20199;-67
2022/06/05 00:39:16;;;;;;;5.93;5.33;;;;;;;23.81;97.20;99487.88;5089011;28;20195;-67
2022/06/05 00:41:55;;;;;;;6.57;6.07;;;;;;;23.73;98.21;99487.69;5090274;28;20191;-67
2022/06/05 00:44:27;;;;;;;5.80;5.50;;;;;;;23.69;97.94;99488.91;5088591;28;20207;-67
2022/06/05 00:46:54;;;;;;;5.93;5.63;;;;;;;23.65;98.49;99484.06;5088662;28;20198;-67
2022/06/05 00:49:26;;;;;;;6.07;5.67;;;;;;;23.61;98.73;99470.38;5089590;28;20244;-67
2022/06/05 00:51:52;;;;;;;5.47;5.07;;;;;;;23.59;98.66;99467.06;5087840;28;20228;-67
2022/06/05 00:54:19;;;;;;;6.53;6.13;;;;;;;23.59;98.97;99471.47;5089957;28;20195;-67
2022/06/05 00:56:46;;;;;;;5.73;5.30;;;;;;;23.58;98.41;99473.25;5087998;28;20211;-67
2022/06/05 00:59:14;;;;;;;7.47;5.67;;;;;;;23.44;98.98;99457.84;5086475;28;20199;-68
2022/06/05 01:01:42;;;;;;;6.07;5.40;;;;;;;23.39;98.94;99452.16;5089731;28;20292;-67
2022/06/05 01:04:10;;;;;;;5.97;5.67;;;;;;;23.41;99.16;99460.72;5088679;28;20211;-67
2022/06/05 01:06:39;;;;;;;5.97;5.57;;;;;;;23.48;99.23;99480.22;5089570;28;20655;-67
2022/06/05 01:09:06;;;;;;;5.80;5.40;;;;;;;23.45;98.97;99480.47;5087107;28;20651;-67
2022/06/05 01:11:45;;;;;;;5.93;5.70;;;;;;;23.43;99.49;99477.13;5087217;28;20653;-67
2022/06/05 01:14:20;;;;;;;5.63;5.23;;;;;;;23.39;99.53;99475.69;5087828;28;20235;-67
2022/06/05 01:16:55;;;;;;;5.80;5.40;;;;;;;23.37;99.26;99474.97;5088920;28;20257;-67
2022/06/05 01:19:40;;;;;;;5.47;5.27;;;;;;;23.36;99.47;99475.94;5087761;28;20302;-68
2022/06/05 01:25:30;;;;;;;6.57;6.07;;;;;;;23.20;99.70;99470.31;5107696;27;20556;-68
2022/06/05 01:28:05;;;;;;;6.07;5.77;;;;;;;23.26;100.00;99485.50;5106026;28;20255;-68
2022/06/05 01:30:37;;;;;;;7.20;5.13;;;;;;;23.26;100.00;99482.88;5105582;28;20725;-68
2022/06/05 01:33:08;;;;;;;6.20;5.87;;;;;;;23.20;100.00;99486.78;5104671;28;20706;-68
2022/06/05 01:35:41;;;;;;;5.40;5.10;;;;;;;23.22;99.39;99487.53;5105555;28;20190;-68
2022/06/05 01:38:14;;;;;;;6.17;5.83;;;;;;;23.21;99.93;99485.03;5105842;28;20202;-68
2022/06/05 01:40:47;;;;;;;6.50;6.07;;;;;;;23.19;99.51;99485.16;5102538;28;20206;-67
2022/06/05 01:43:18;;;;;;;5.30;4.90;;;;;;;23.22;98.70;99484.06;5101358;28;20222;-67
2022/06/05 01:45:49;;;;;;;5.40;5.10;;;;;;;23.19;98.74;99489.56;5107088;28;20578;-67
2022/06/05 01:48:29;;;;;;;6.13;5.83;;;;;;;23.14;99.24;99486.47;5107070;28;20214;-68
2022/06/05 01:50:59;;;;;;;5.97;5.63;;;;;;;23.11;99.64;99489.31;5104363;28;20214;-67
2022/06/05 01:53:33;;;;;;;6.27;5.77;;;;;;;23.04;99.96;99483.75;5105162;28;20203;-68
2022/06/05 01:56:06;;;;;;;6.50;6.20;;;;;;;22.92;100.00;99472.50;5104567;28;20214;-67
2022/06/05 01:58:37;;;;;;;6.00;5.60;;;;;;;22.93;100.00;99473.34;5107011;28;20199;-68
2022/06/05 02:01:15;;;;;;;5.67;5.37;;;;;;;22.89;100.00;99475.38;5105605;28;20214;-68
2022/06/05 02:03:46;;;;;;;6.17;5.77;;;;;;;22.88;100.00;99481.53;5105013;28;20223;-67
2022/06/05 02:06:17;;;;;;;6.40;6.10;;;;;;;22.89;100.00;99472.75;5107220;28;20650;-68
2022/06/05 02:08:51;;;;;;;5.73;5.33;;;;;;;22.79;100.00;99450.06;5105271;28;20207;-67
2022/06/05 02:11:22;;;;;;;7.90;7.23;;;;;;;22.81;100.00;99467.28;5106435;28;20209;-68
2022/06/05 02:13:50;;;;;;;7.30;6.87;;;;;;;22.82;100.00;99486.41;5105648;28;20202;-68
2022/06/05 02:16:17;;;;;;;6.00;5.67;;;;;;;22.71;100.00;99470.75;5104845;28;20199;-68
2022/06/05 02:18:44;;;;;;;6.70;6.20;;;;;;;22.77;100.00;99471.13;5106956;28;20214;-69
2022/06/05 02:21:11;;;;;;;6.57;6.27;;;;;;;22.78;100.00;99472.75;5104300;28;20606;-67
2022/06/05 02:23:40;;;;;;;6.60;6.17;;;;;;;22.77;100.00;99476.34;5106072;28;20231;-68
2022/06/05 02:26:09;;;;;;;7.20;6.70;;;;;;;22.77;100.00;99468.50;5106855;28;20622;-68
2022/06/05 02:28:38;;;;;;;6.20;5.70;;;;;;;22.79;100.00;99471.81;5105423;28;20211;-67
2022/06/05 02:31:15;;;;;;;6.43;6.03;;;;;;;22.79;100.00;99466.59;5106970;28;20206;-67
2022/06/05 02:33:49;;;;;;;6.67;6.27;;;;;;;22.79;100.00;99455.28;5103745;28;20698;-68
2022/06/05 02:36:34;;;;;;;6.27;5.90;;;;;;;22.77;100.00;99452.81;5091120;28;20222;-67
2022/06/05 02:39:13;;;;;;;7.13;6.53;;;;;;;22.75;100.00;99454.69;5091637;28;20195;-67
2022/06/05 02:41:48;;;;;;;6.13;5.63;;;;;;;22.74;100.00;99470.53;5092544;28;20250;-67
2022/06/05 02:44:30;;;;;;;5.67;5.37;;;;;;;22.71;100.00;99476.00;5090768;28;20214;-68
2022/06/05 02:47:11;;;;;;;7.57;6.17;;;;;;;22.71;100.00;99479.44;5090093;28;20245;-68
2022/06/05 02:49:43;;;;;;;6.13;5.70;;;;;;;22.66;100.00;99493.81;5092542;28;20199;-67
2022/06/05 02:52:10;;;;;;;5.57;5.07;;;;;;;22.59;100.00;99485.56;5090638;28;20734;-67
2022/06/05 02:54:40;;;;;;;5.97;5.67;;;;;;;22.46;100.00;99471.81;5092272;28;20204;-67
2022/06/05 02:57:08;;;;;;;6.03;5.73;;;;;;;22.54;100.00;99482.50;5090763;28;20203;-67
2022/06/05 02:59:36;;;;;;;6.37;5.87;;;;;;;22.56;100.00;99485.81;5092205;28;20203;-67
2022/06/05 03:04:47;;;;;;;6.73;6.37;;;;;;;22.56;100.00;99491.03;5087711;28;20253;-67
2022/06/05 03:07:14;;;;;;;6.73;6.10;;;;;;;22.52;100.00;99484.38;5088881;28;20252;-68
2022/06/05 03:09:41;;;;;;;6.23;5.73;;;;;;;22.53;100.00;99475.59;5091631;28;20199;-67
2022/06/05 03:12:08;;;;;;;6.93;6.23;;;;;;;22.55;100.00;99478.13;5092523;28;20200;-67
2022/06/05 03:14:36;;;;;;;6.70;5.53;;;;;;;22.59;100.00;99480.34;5090814;28;20647;-68
2022/06/05 03:17:04;;;;;;;6.40;5.90;;;;;;;22.54;100.00;99472.06;5089902;28;20191;-67
2022/06/05 03:19:30;;;;;;;5.57;5.27;;;;;;;22.66;100.00;99488.56;5092204;28;20210;-68
2022/06/05 03:21:57;;;;;;;6.83;6.43;;;;;;;22.61;100.00;99485.47;5089659;28;20214;-67
2022/06/05 03:24:24;;;;;;;6.40;5.97;;;;;;;22.63;100.00;99481.78;5089911;28;20231;-68
2022/06/05 03:26:51;;;;;;;6.23;5.83;;;;;;;22.58;100.00;99494.38;5090857;28;20256;-67
2022/06/05 03:29:18;;;;;;;5.93;5.63;;;;;;;22.57;100.00;99497.09;5091970;28;20196;-67
2022/06/05 03:31:46;;;;;;;6.23;5.73;;;;;;;22.62;100.00;99490.56;5089008;28;20654;-67
2022/06/05 03:34:12;;;;;;;7.40;6.90;;;;;;;22.69;100.00;99491.78;5089733;28;20200;-67
2022/06/05 03:36:39;;;;;;;6.47;6.07;;;;;;;22.73;100.00;99485.38;5089888;28;20199;-67
2022/06/05 03:39:06;;;;;;;7.20;6.70;;;;;;;22.77;100.00;99484.19;5088173;28;20260;-67
2022/06/05 03:41:33;;;;;;;6.87;6.37;;;;;;;22.77;100.00;99463.28;5089960;28;20203;-68
2022/06/05 03:43:59;;;;;;;11.30;7.23;;;;;;;22.83;100.00;99462.78;5088779;28;20211;-67
2022/06/05 03:46:26;;;;;;;7.47;6.83;;;;;;;22.89;100.00;99467.53;5086288;28;20200;-68
2022/06/05 03:48:54;;;;;;;6.90;6.30;;;;;;;22.96;100.00;99466.09;5090669;28;20207;-68
2022/06/05 03:51:23;;;;;;;6.53;6.23;;;;;;;23.08;100.00;99461.63;5087038;28;20200;-67
2022/06/05 03:53:50;;;;;;;6.63;6.33;;;;;;;23.19;100.00;99458.16;5089236;28;20198;-67
2022/06/05 03:56:19;;;;;;;7.10;6.70;;;;;;;23.25;100.00;99447.19;5090157;28;20214;-68
2022/06/05 03:58:46;;;;;;;7.97;7.37;;;;;;;23.30;100.00;99445.84;5091578;28;20206;-68
2022/06/05 04:01:16;;;;;;;7.23;6.77;;;;;;;23.39;100.00;99452.16;5089931;28;20199;-67
2022/06/05 04:03:43;;;;;;;7.60;7.00;;;;;;;23.50;100.00;99457.34;5090792;28;20586;-68
2022/06/05 04:06:14;;;;;;;6.27;5.97;;;;;;;23.59;100.00;99456.59;5090364;28;20203;-69
2022/06/05 04:08:42;;;;;;;8.47;7.83;;;;;;;23.69;100.00;99447.00;5090942;28;20206;-67
2022/06/05 04:11:12;;;;;;;6.97;6.43;;;;;;;23.65;100.00;99442.97;5091107;28;20200;-68
2022/06/05 04:13:40;;;;;;;9.33;6.83;;;;;;;23.71;100.00;99458.22;5090503;28;20200;-68
2022/06/05 04:16:11;;;;;;;7.27;6.37;;;;;;;23.63;100.00;99473.69;5090937;28;20218;-68
2022/06/05 04:18:38;;;;;;;6.87;6.57;;;;;;;23.62;100.00;99461.56;5088320;28;20294;-67
2022/06/05 04:21:07;;;;;;;7.93;7.37;;;;;;;23.71;100.00;99463.44;5088902;28;20195;-67
2022/06/05 04:23:35;;;;;;;7.67;7.00;;;;;;;23.75;100.00;99451.72;5089680;28;20219;-67
2022/06/05 04:26:02;;;;;;;6.93;6.53;;;;;;;23.90;100.00;99460.09;5089677;28;20230;-67
2022/06/05 04:28:29;;;;;;;7.03;6.43;;;;;;;24.01;100.00;99463.47;5091180;28;20257;-67
2022/06/05 04:30:56;;;;;;;6.03;5.73;;;;;;;24.15;100.00;99459.72;5090587;28;20215;-68
2022/06/05 04:33:22;;;;;;;6.97;6.47;;;;;;;24.33;100.00;99452.09;5087906;28;20749;-68
2022/06/05 04:35:49;;;;;;;7.53;7.13;;;;;;;24.48;100.00;99456.84;5090644;28;20206;-68
2022/06/05 04:38:16;;;;;;;7.37;6.97;;;;;;;24.62;100.00;99463.47;5091275;28;20249;-68
2022/06/05 04:40:45;;;;;;;7.47;6.80;;;;;;;24.75;99.98;99455.41;5090298;28;20212;-67
2022/06/05 04:43:13;;;;;;;9.27;7.63;;;;;;;24.88;97.98;99454.19;5088007;28;20659;-68
2022/06/05 04:45:39;;;;;;;9.47;8.17;;;;;;;24.98;97.38;99448.97;5088329;28;20643;-67
2022/06/05 04:48:07;;;;;;;7.93;7.43;;;;;;;25.05;96.49;99456.16;5088944;28;20230;-68
2022/06/05 04:50:34;;;;;;;9.23;8.53;;;;;;;25.02;96.18;99450.34;5087069;28;20218;-68
2022/06/05 04:53:01;;;;;;;7.90;7.50;;;;;;;25.06;97.25;99452.59;5090139;28;20199;-68
2022/06/05 04:55:28;;;;;;;7.17;6.77;;;;;;;24.99;97.97;99440.13;5089816;28;20731;-67
2022/06/05 04:57:56;;;;;;;6.60;6.30;;;;;;;24.96;97.24;99446.50;5088078;28;20207;-68
2022/06/05 05:00:24;;;;;;;6.63;5.57;;;;;;;25.02;96.71;99440.69;5088170;28;22018;-68
2022/06/05 05:02:50;;;;;;;6.77;6.37;;;;;;;25.16;96.16;99446.50;5089935;28;20642;-67
2022/06/05 05:05:17;;;;;;;6.23;5.87;;;;;;;25.24;95.51;99444.00;5089998;28;20222;-68
2022/06/05 05:07:44;;;;;;;7.67;7.07;;;;;;;25.39;95.26;99451.38;5088425;28;20674;-67
2022/06/05 05:10:11;;;;;;;6.40;6.10;;;;;;;25.53;94.76;99452.75;5089869;28;20203;-67
2022/06/05 05:12:39;;;;;;;6.73;6.33;;;;;;;25.57;94.70;99448.88;5089760;28;20231;-68
2022/06/05 05:15:09;;;;;;;6.63;6.17;;;;;;;25.67;92.82;99447.06;5087254;28;20195;-68
2022/06/05 05:17:35;;;;;;;6.87;6.47;;;;;;;25.58;90.71;99406.75;5090078;28;20203;-67
2022/06/05 05:20:03;;;;;;;6.43;6.13;;;;;;;25.84;91.19;99433.22;5089073;28;20203;-66
2022/06/05 05:22:36;;;;;;;8.77;7.23;;;;;;;25.95;89.11;99435.66;5089893;28;20706;-67
2022/06/05 05:25:03;;;;;;;6.13;5.73;;;;;;;26.02;87.02;99442.00;5087609;28;20215;-67
2022/06/05 05:27:30;;;;;;;5.07;4.87;;;;;;;26.21;88.68;99432.44;5090425;28;20559;-67
2022/06/05 05:29:57;;;;;;;6.90;5.37;;;;;;;26.40;85.89;99440.22;5090603;28;20196;-68
2022/06/05 05:32:25;;;;;;;5.40;5.10;;;;;;;26.53;84.78;99435.47;5088393;28;20224;-67
2022/06/05 05:34:52;;;;;;;5.43;5.03;;;;;;;26.53;83.45;99435.47;5090221;28;20187;-69
2022/06/05 05:37:19;;;;;;;5.50;5.10;;;;;;;26.37;83.04;99435.25;5090082;28;20203;-66
2022/06/05 05:42:30;;;;;;;5.37;4.87;;;;;;;26.46;83.36;99434.41;5088776;28;20248;-66
2022/06/05 05:44:58;;;;;;;5.37;4.97;;;;;;;26.40;83.66;99419.19;5086725;28;20223;-66
2022/06/05 05:47:28;;;;;;;5.43;5.23;;;;;;;26.58;83.96;99422.72;5086333;28;20203;-66
2022/06/05 05:49:56;;;;;;;4.67;4.47;;;;;;;26.84;84.66;99428.13;5089022;28;20200;-66
2022/06/05 05:52:24;;;;;;;5.77;5.47;;;;;;;27.04;83.44;99417.28;5086459;28;20245;-66
2022/06/05 05:54:51;;;;;;;5.67;5.17;;;;;;;27.23;80.51;99428.66;5087485;28;20248;-66
2022/06/05 05:57:18;;;;;;;5.27;4.97;;;;;;;27.39;83.14;99428.81;5090188;28;20222;-67
2022/06/05 05:59:45;;;;;;;5.57;5.17;;;;;;;27.52;80.83;99430.09;5085394;28;20204;-67
2022/06/05 06:02:18;;;;;;;5.80;5.30;;;;;;;27.90;79.06;99428.88;5083499;28;20199;-67
2022/06/05 06:04:46;;;;;;;5.53;5.10;;;;;;;28.23;78.10;99437.00;5089697;28;20318;-67
2022/06/05 06:07:13;;;;;;;5.50;5.30;;;;;;;28.68;76.29;99440.19;5088043;28;20211;-67
2022/06/05 06:09:41;;;;;;;6.78;5.93;;;;;;;29.10;77.70;99446.22;5087945;28;20635;-67
2022/06/05 06:12:08;;;;;;;4.70;4.35;;;;;;;29.42;70.51;99452.53;5093421;28;20245;-67
2022/06/05 06:14:35;;;;;;;4.57;4.30;;;;;;;29.60;69.74;99446.09;5091160;28;20192;-67
2022/06/05 06:17:02;;;;;;;4.63;4.32;;;;;;;29.91;68.22;99453.38;5090097;28;20688;-67
2022/06/05 06:19:29;;;;;;;5.45;4.35;;;;;;;29.93;70.78;99438.16;5091538;28;20196;-67
2022/06/05 06:21:57;;;;;;;4.07;3.88;;;;;;;30.12;66.12;99443.06;5092176;28;20203;-67
2022/06/05 06:24:24;;;;;;;4.65;4.35;;;;;;;30.17;69.59;99430.16;5092328;28;20238;-68
2022/06/05 06:26:51;;;;;;;4.70;4.40;;;;;;;30.25;68.35;99431.94;5092268;28;20207;-67
2022/06/05 06:29:17;;;;;;;5.07;4.88;;;;;;;30.26;67.68;99437.06;5090567;28;20211;-67
2022/06/05 06:31:44;;;;;;;4.38;4.18;;;;;;;30.14;69.46;99414.63;5089315;28;20199;-67
2022/06/05 06:34:11;;;;;;;4.50;4.30;;;;;;;30.16;68.79;99428.50;5087352;28;20676;-67
2022/06/05 06:36:38;;;;;;;6.05;4.50;;;;;;;30.17;69.13;99415.13;5093108;28;20207;-67
2022/06/05 06:39:06;;;;;;;4.65;4.45;;;;;;;29.98;67.10;99389.09;5091001;28;20199;-67
2022/06/05 06:41:33;;;;;;;4.53;4.32;;;;;;;30.21;67.65;99413.75;5091029;28;20199;-67
2022/06/05 06:44:01;;;;;;;4.78;4.57;;;;;;;30.05;67.73;99410.38;5087445;28;20200;-67
2022/06/05 06:46:28;;;;;;;4.82;4.53;;;;;;;30.06;66.69;99423.41;5092679;28;20219;-67
2022/06/05 06:48:55;;;;;;;5.63;4.80;;;;;;;30.06;65.31;99418.13;5091375;28;20207;-67
2022/06/05 06:51:21;;;;;;;5.82;4.70;;;;;;;30.13;65.29;99416.47;5090121;28;20203;-67
2022/06/05 06:53:48;;;;;;;5.50;5.10;;;;;;;30.25;66.03;99405.50;5092643;28;20234;-67
2022/06/05 06:56:20;;;;;;;4.47;4.28;;;;;;;30.37;62.26;99415.53;5092636;28;20552;-67
2022/06/05 06:58:47;;;;;;;4.20;4.00;;;;;;;30.49;60.13;99408.06;5090312;28;20203;-65
2022/06/05 07:01:14;;;;;;;4.25;3.95;;;;;;;30.56;63.42;99403.75;5090629;28;20450;-67
2022/06/05 07:03:41;;;;;;;5.05;4.72;;;;;;;30.60;61.70;99405.84;5092218;28;20221;-67
2022/06/05 07:06:10;;;;;;;6.05;5.63;;;;;;;30.79;62.57;99401.97;5087970;28;20215;-67
2022/06/05 07:08:37;;;;;;;4.50;4.10;;;;;;;31.17;60.42;99401.06;5090734;28;20660;-67
2022/06/05 07:11:05;;;;;;;4.43;4.13;;;;;;;31.13;58.98;99396.28;5087458;28;20279;-67
2022/06/05 07:13:34;;;;;;;3.88;3.58;;;;;;;31.14;64.13;99393.47;5091199;28;20208;-67
2022/06/05 07:16:01;;;;;;;6.22;5.00;;;;;;;30.97;60.17;99397.22;5088742;28;20192;-67
2022/06/05 07:18:28;;;;;;;4.55;4.22;;;;;;;30.95;62.35;99396.59;5090145;28;20560;-67
2022/06/05 07:20:55;;;;;;;7.85;4.70;;;;;;;31.13;63.70;99391.81;5089130;28;20207;-67
2022/06/05 07:23:21;;;;;;;5.53;4.35;;;;;;;31.44;62.94;99393.53;5086753;28;20606;-67
2022/06/05 07:25:50;;;;;;;4.63;4.35;;;;;;;31.64;61.46;99387.56;5089364;28;20272;-67
2022/06/05 07:28:18;;;;;;;5.10;4.70;;;;;;;31.58;62.10;99380.34;5086094;28;20203;-67
2022/06/05 07:30:49;;;;;;;4.97;4.55;;;;;;;31.65;61.96;99388.41;5087949;28;20666;-67
2022/06/05 07:33:17;;;;;;;5.88;5.30;;;;;;;31.77;59.43;99384.28;5089268;28;20207;-67
2022/06/05 07:35:44;;;;;;;5.18;4.78;;;;;;;31.84;61.04;99379.91;5091793;28;20199;-67
2022/06/05 07:38:11;;;;;;;5.88;5.38;;;;;;;31.88;60.84;99386.50;5089988;28;20674;-67
2022/06/05 07:40:40;;;;;;;6.93;5.45;;;;;;;31.83;60.72;99378.25;5087918;28;20588;-67
2022/06/05 07:43:09;;;;;;;5.78;5.20;;;;;;;32.04;61.86;99381.03;5090749;28;20659;-67
2022/06/05 07:45:37;;;;;;;4.85;4.65;;;;;;;32.25;62.24;99365.19;5084551;28;20296;-66
2022/06/05 07:48:06;;;;;;;5.47;5.07;;;;;;;32.49;59.72;99382.63;5087245;28;20238;-67
2022/06/05 07:50:34;;;;;;;4.82;4.63;;;;;;;32.54;59.83;99371.44;5086444;28;20195;-70
2022/06/05 07:55:46;;;;;;;4.93;4.20;;;;;;;32.58;59.63;99372.72;5090625;28;20860;-65
2022/06/05 07:58:13;;;;;;;5.72;5.28;;;;;;;32.72;58.09;99369.22;5090249;28;20203;-65
2022/06/05 08:00:40;;;;;;;5.43;4.95;;;;;;;32.71;58.29;99367.56;5090384;28;20196;-67
2022/06/05 08:03:08;;;;;;;4.90;4.70;;;;;;;32.75;61.06;99367.00;5089810;28;20218;-65
2022/06/05 08:05:35;;;;;;;4.68;4.45;;;;;;;33.00;57.51;99370.09;5089367;28;20245;-65
2022/06/05 08:08:01;;;;;;;7.13;5.03;;;;;;;33.13;59.53;99367.59;5088238;28;20203;-63
2022/06/05 08:10:28;;;;;;;4.53;4.32;;;;;;;33.40;57.02;99367.81;5090613;28;20195;-63
2022/06/05 08:12:56;;;;;;;4.90;4.70;;;;;;;33.55;57.04;99379.16;5091507;28;20203;-63
2022/06/05 08:15:23;;;;;;;5.93;5.53;;;;;;;33.70;57.20;99371.97;5089371;28;20444;-59
2022/06/05 08:17:50;;;;;;;4.35;4.18;;;;;;;33.76;54.58;99377.31;5091376;28;20206;-60
2022/06/05 08:20:19;;;;;;;4.95;4.65;;;;;;;33.66;57.34;99362.72;5091180;28;20220;-59
2022/06/05 08:22:45;;;;;;;4.85;4.55;;;;;;;33.56;56.92;99359.53;5091529;28;20199;-61
2022/06/05 08:25:14;;;;;;;4.55;4.25;;;;;;;33.77;59.82;99356.84;5090732;28;20207;-60
2022/06/05 08:27:41;;;;;;;4.55;4.20;;;;;;;33.80;55.98;99342.34;5091725;28;20195;-60
2022/06/05 08:30:08;;;;;;;5.05;4.68;;;;;;;34.07;58.60;99350.25;5091297;28;20203;-60
2022/06/05 08:32:35;;;;;;;4.57;4.13;;;;;;;34.18;54.23;99362.22;5090894;28;20556;-60
2022/06/05 08:35:03;;;;;;;14.00;5.63;;;;;;;34.33;55.70;99365.53;5091457;28;20253;-61
2022/06/05 08:43:32;;;;;;;4.72;4.53;;;;;;;35.09;51.90;99345.63;5091273;28;20199;-68
2022/06/05 08:46:12;;;;;;;6.50;5.90;;;;;;;35.26;50.21;99360.22;5091065;28;20222;-69
2022/06/05 08:48:44;;;;;;;4.70;4.40;;;;;;;35.35;48.34;99346.69;5088154;28;20209;-67
2022/06/05 08:51:34;;;;;;;6.93;5.88;;;;;;;35.47;49.68;99347.69;5090551;28;20628;-68
2022/06/05 08:54:07;;;;;;;5.30;5.00;;;;;;;35.51;48.73;99338.25;5090887;28;20248;-67
2022/06/05 08:56:38;;;;;;;9.02;6.85;;;;;;;35.59;51.07;99338.06;5089728;28;20587;-67
2022/06/05 08:59:11;;;;;;;7.13;5.28;;;;;;;35.49;50.58;99324.28;5089026;28;20760;-71
2022/06/05 09:01:43;;;;;;;4.03;3.90;;;;;;;35.50;47.65;99328.63;5087951;28;20675;-66
2022/06/05 09:04:28;;;;;;;9.82;6.28;;;;;;;35.62;49.59;99334.97;5081983;28;20710;-65
2022/06/05 09:06:59;;;;;;;5.82;5.30;;;;;;;35.71;47.08;99328.38;5085368;28;20227;-69
2022/06/05 09:09:36;;;;;;;5.63;4.95;;;;;;;35.68;45.87;99324.28;5085472;28;20212;-67
2022/06/05 09:12:10;;;;;;;5.32;4.93;;;;;;;35.67;44.44;99327.19;5087656;28;20202;-67
2022/06/05 09:14:41;;;;;;;4.65;4.25;;;;;;;35.79;45.16;99322.81;5087645;28;20196;-68
2022/06/05 09:17:13;;;;;;;9.10;4.45;;;;;;;35.85;46.04;99324.66;5089366;28;20637;-67
2022/06/05 09:19:42;;;;;;;5.55;4.30;;;;;;;35.94;42.45;99339.41;5088487;28;20203;-68
2022/06/05 09:22:16;;;;;;;4.50;4.30;;;;;;;35.92;43.59;99330.78;5086631;28;20203;-67
2022/06/05 09:25:00;;;;;;;4.20;4.00;;;;;;;36.04;43.98;99334.44;5088930;28;20323;-67
2022/06/05 09:27:38;;;;;;;4.57;4.38;;;;;;;36.00;43.91;99327.88;5086150;28;20207;-67
2022/06/05 09:30:10;;;;;;;4.35;4.15;;;;;;;36.00;44.26;99322.53;5089507;28;20202;-66
2022/06/05 09:33:04;;;;;;;4.50;4.20;;;;;;;36.20;39.86;99320.63;5086624;28;20594;-66
2022/06/05 09:35:36;;;;;;;4.40;4.20;;;;;;;36.16;44.06;99316.75;5085794;28;20199;-66
2022/06/05 09:38:11;;;;;;;3.67;3.47;;;;;;;36.26;43.57;99314.44;5089361;28;20199;-67
2022/06/05 09:40:44;;;;;;;5.60;4.35;;;;;;;36.14;40.90;99318.81;5088129;28;20209;-67
2022/06/05 09:43:24;;;;;;;4.70;4.45;;;;;;;36.26;39.88;99325.13;5088748;28;20207;-67
2022/06/05 09:46:08;;;;;;;4.93;4.72;;;;;;;36.35;42.95;99314.22;5089300;28;20234;-66
2022/06/05 09:48:42;;;;;;;5.50;4.20;;;;;;;36.42;39.83;99314.97;5093026;28;20613;-65
2022/06/05 09:51:11;;;;;;;3.78;3.58;;;;;;;36.49;41.22;99321.09;5092917;28;20194;-66
2022/06/05 09:53:43;;;;;;;3.97;3.78;;;;;;;36.43;39.55;99305.94;5092557;28;20260;-66
2022/06/05 09:56:27;;;;;;;4.35;4.05;;;;;;;36.47;39.03;99313.31;5091487;28;20651;-66
2022/06/05 09:59:11;;;;;;;4.47;4.28;;;;;;;36.28;38.11;99303.56;5092619;28;20191;-65
2022/06/05 10:01:50;;;;;;;4.18;3.83;;;;;;;36.26;39.74;99301.09;5095064;28;20195;-65
2022/06/05 10:04:20;;;;;;;3.97;3.78;;;;;;;36.19;39.46;99299.50;5093735;28;20231;-65
2022/06/05 10:06:51;;;;;;;4.18;3.97;;;;;;;36.35;44.13;99285.66;5095089;28;20678;-66
2022/06/05 10:09:21;;;;;;;3.85;3.65;;;;;;;36.43;39.04;99284.56;5091855;28;20579;-65
2022/06/05 10:11:53;;;;;;;3.83;3.55;;;;;;;36.55;40.80;99285.53;5094747;28;20667;-65
2022/06/05 10:14:31;;;;;;;3.80;3.65;;;;;;;36.48;38.98;99284.75;5094328;28;20199;-65
2022/06/05 10:17:09;;;;;;;3.53;3.33;;;;;;;36.49;39.60;99278.34;5093093;28;20203;-65
2022/06/05 10:19:55;;;;;;;3.63;3.42;;;;;;;36.74;38.41;99271.22;5092743;28;20199;-65
2022/06/05 10:22:29;;;;;;;3.75;3.55;;;;;;;36.80;40.01;99265.81;5093260;28;20195;-65
2022/06/05 10:25:15;;;;;;;3.03;2.92;;;;;;;36.79;37.90;99264.19;5094158;28;20585;-65
2022/06/05 10:27:50;;;;;;;2.90;2.80;;;;;;;36.58;38.89;99258.38;5093446;28;20199;-65
2022/06/05 10:30:18;;;;;;;3.97;3.28;;;;;;;36.50;39.30;99264.81;5093999;28;20199;-66
2022/06/05 10:32:51;;;;;;;3.83;3.63;;;;;;;36.38;38.64;99268.38;5091860;28;20238;-66
2022/06/05 10:35:26;;;;;;;4.10;3.85;;;;;;;36.19;37.12;99260.25;5093099;28;20196;-66
2022/06/05 10:37:58;;;;;;;3.28;3.17;;;;;;;36.26;36.90;99266.38;5093679;28;20226;-66
2022/06/05 10:40:31;;;;;;;4.97;3.25;;;;;;;36.16;36.91;99260.69;5089414;28;20203;-67
2022/06/05 10:43:04;;;;;;;3.15;2.80;;;;;;;36.14;37.64;99253.94;5093028;28;20599;-66
2022/06/05 10:45:39;;;;;;;3.15;3.05;;;;;;;36.03;38.23;99239.38;5088632;28;20214;-66
2022/06/05 10:48:13;;;;;;;4.07;3.67;;;;;;;36.16;37.86;99258.03;5090868;28;20294;-66
2022/06/05 10:50:49;;;;;;;3.40;3.20;;;;;;;36.17;37.47;99251.66;5090543;28;20195;-66
2022/06/05 10:53:21;;;;;;;2.65;2.55;;;;;;;36.22;36.61;99257.16;5092996;28;20195;-66
2022/06/05 10:56:05;;;;;;;3.53;3.33;;;;;;;36.22;39.73;99246.47;5091156;28;20207;-66
2022/06/05 10:58:40;;;;;;;2.72;2.53;;;;;;;36.22;37.35;99249.16;5092511;28;20207;-66
2022/06/05 11:01:31;;;;;;;3.92;2.92;;;;;;;36.07;37.20;99227.28;5093128;28;20697;-66
2022/06/05 11:04:05;;;;;;;3.33;2.72;;;;;;;36.17;37.69;99227.63;5089737;28;20227;-66
2022/06/05 11:06:40;;;;;;;3.03;2.80;;;;;;;36.21;35.98;99238.69;5090610;28;20703;-66
2022/06/05 11:09:19;;;;;;;4.28;3.97;;;;;;;36.31;36.68;99233.72;5091466;28;20202;-66
2022/06/05 11:14:46;;;;;;;2.75;2.50;;;;;;;36.43;34.61;99231.16;5091753;28;20222;-66
2022/06/05 11:17:26;;;;;;;2.78;2.67;;;;;;;36.44;36.76;99230.13;5090700;28;20210;-66
2022/06/05 11:20:05;;;;;;;2.30;2.20;;;;;;;36.46;38.30;99215.53;5092785;28;20202;-66
2022/06/05 11:22:33;;;;;;;4.05;3.22;;;;;;;36.27;36.26;99219.16;5092288;28;20199;-66
2022/06/05 11:25:13;;;;;;;6.40;3.28;;;;;;;36.21;38.21;99212.81;5090541;28;20726;-66
2022/06/05 11:27:51;;;;;;;2.92;2.58;;;;;;;36.16;37.24;99217.97;5091839;28;20215;-66
2022/06/05 11:30:28;;;;;;;2.55;2.35;;;;;;;36.08;35.74;99212.91;5091915;28;20203;-66
2022/06/05 11:33:03;;;;;;;2.75;2.65;;;;;;;35.97;36.26;99213.53;5089138;28;20257;-66
2022/06/05 11:35:38;;;;;;;2.97;2.80;;;;;;;35.81;37.38;99217.53;5090299;28;20203;-66
2022/06/05 11:38:20;;;;;;;3.30;2.75;;;;;;;35.88;37.38;99204.16;5091193;28;20198;-66
2022/06/05 11:40:52;;;;;;;2.67;2.47;;;;;;;35.90;36.85;99215.44;5092368;28;20718;-66
2022/06/05 11:43:29;;;;;;;2.90;2.72;;;;;;;35.95;37.45;99212.94;5087854;28;20667;-65
2022/06/05 11:46:12;;;;;;;2.55;2.45;;;;;;;36.04;35.27;99206.31;5090754;28;20198;-64
2022/06/05 11:48:44;;;;;;;2.42;2.33;;;;;;;36.22;38.18;99203.75;5089942;28;20214;-68
2022/06/05 11:51:20;;;;;;;2.97;2.60;;;;;;;36.30;38.71;99206.19;5086785;28;20629;-68
2022/06/05 11:54:02;;;;;;;2.20;2.10;;;;;;;36.39;36.95;99203.25;5091640;28;20237;-63
2022/06/05 11:56:49;;;;;;;2.35;2.25;;;;;;;36.54;36.44;99201.13;5091653;28;20203;-64
2022/06/05 11:59:29;;;;;;;10.48;4.03;;;;;;;36.31;35.79;99202.50;5090853;28;20268;-63
2022/06/05 12:02:09;;;;;;;2.95;2.75;;;;;;;36.31;37.31;99196.34;5088596;28;20196;-63
2022/06/05 12:04:48;;;;;;;2.70;2.60;;;;;;;36.35;36.90;99202.06;5091914;28;20203;-64
2022/06/05 12:07:17;;;;;;;2.35;2.20;;;;;;;36.27;35.55;99179.94;5088679;28;20222;-63
2022/06/05 12:09:48;;;;;;;2.78;2.45;;;;;;;36.32;36.95;99193.44;5091507;28;20210;-64